Du har inga inställningar för hoppväder.nu

Hoppväder.nu

Senast uppdaterat 01:38

UTC-tid

2020-07-06 kl. 23:38


Sol och måne

Solen går upp 3:32 och går ner 23:23 (beräknade cirkatider)
Nästa fullmåne blir om 27 dagar (2020-08-03)


Väderstation: Skydive Mohed

Väderrapport från: 2020-07-07 kl 01:37:56
Vindriktning: 192°
Vinden har varierat mellan 180° och 247° de senaste 10 minuterna.
Vindstyrka: 2,7 m/s
Byvind: 4,8 m/s
Lufttryck: 980,3 hPa
Temperatur: 11,7°C, känns som: 9,6°C
Daggpunkt: 9,1°C
Luftfuktighet: 84%
Molnbas: 326 m




METAR

ESSD (Borlänge)
(1458 minuter sedan)
ESSD 062320Z AUTO 28009KT 9999 OVC044/// 11/07 Q0995=



ESNN (Sundsvall-Härnösand)
(1458 minuter sedan)
ESNN 062320Z AUTO 31010KT 9999 R16///// R34/P2000N OVC014/// 12/10 Q0991=












TAF

ESSD (Borlänge)
ESSD



ESNN (Sundsvall-Härnösand)
ESNN





Kodnycklar till TAF och METAR






LHP

(Mohed är område se42e i Delmråde 4)

Prognos är inte uppdaterad






Preliminär prognos